Terminal Aerodrome Forecast
Issued by NWS

Home | Current Version | Previous Version | Text Only | Print | Product List | Glossary On
Versions: 1 2 3 4 5 6 7 8 9 10 11 12 13 14 15 16 17 18 19 20 21 22 23 24 25 26 27 28
000
FTUS43 KDLH 311000 AAC
TAFHIB
TAF AMD
KHIB 311012Z 3110/0106 36009G18KT P6SM BKN025
      TEMPO 3110/3114 BKN015
     FM311600 35008G14KT P6SM SCT025
     FM312100 34005KT P6SM FEW025
     FM010000 VRB02KT P6SM SKC=

USA.gov is the U.S. government's official web portal to all federal, state and local government web resources and services.